sensor_id;sensor_type;location;lat;lon;timestamp;P1;durP1;ratioP1;P2;durP2;ratioP2
487;SDS011;16586;48.976;9.584;2023-02-15T00:00:27;6.50;;;6.10;;
487;SDS011;16586;48.976;9.584;2023-02-15T00:02:55;6.07;;;5.78;;
487;SDS011;16586;48.976;9.584;2023-02-15T00:05:21;6.90;;;6.50;;
487;SDS011;16586;48.976;9.584;2023-02-15T00:07:48;6.60;;;6.00;;
487;SDS011;16586;48.976;9.584;2023-02-15T00:10:15;6.40;;;6.00;;
487;SDS011;16586;48.976;9.584;2023-02-15T00:12:42;6.45;;;6.05;;
487;SDS011;16586;48.976;9.584;2023-02-15T00:15:09;5.27;;;4.97;;
487;SDS011;16586;48.976;9.584;2023-02-15T00:17:37;4.68;;;4.38;;
487;SDS011;16586;48.976;9.584;2023-02-15T00:20:06;5.03;;;4.72;;
487;SDS011;16586;48.976;9.584;2023-02-15T00:22:33;5.00;;;4.70;;
487;SDS011;16586;48.976;9.584;2023-02-15T00:25:00;5.07;;;4.78;;
487;SDS011;16586;48.976;9.584;2023-02-15T00:27:27;5.00;;;4.70;;
487;SDS011;16586;48.976;9.584;2023-02-15T00:29:54;5.40;;;5.10;;
487;SDS011;16586;48.976;9.584;2023-02-15T00:32:20;4.90;;;4.60;;
487;SDS011;16586;48.976;9.584;2023-02-15T00:34:47;5.70;;;5.40;;
487;SDS011;16586;48.976;9.584;2023-02-15T00:37:15;5.40;;;5.10;;
487;SDS011;16586;48.976;9.584;2023-02-15T00:39:45;5.60;;;5.30;;
487;SDS011;16586;48.976;9.584;2023-02-15T00:42:12;4.88;;;4.57;;
487;SDS011;16586;48.976;9.584;2023-02-15T00:44:38;5.20;;;4.93;;
487;SDS011;16586;48.976;9.584;2023-02-15T00:47:05;5.65;;;5.35;;
487;SDS011;16586;48.976;9.584;2023-02-15T00:49:32;5.72;;;5.43;;
487;SDS011;16586;48.976;9.584;2023-02-15T00:51:59;4.50;;;4.20;;
487;SDS011;16586;48.976;9.584;2023-02-15T00:54:27;5.70;;;5.40;;
487;SDS011;16586;48.976;9.584;2023-02-15T00:56:53;4.82;;;4.53;;
487;SDS011;16586;48.976;9.584;2023-02-15T00:59:20;4.68;;;4.38;;
487;SDS011;16586;48.976;9.584;2023-02-15T01:01:47;5.07;;;4.78;;
487;SDS011;16586;48.976;9.584;2023-02-15T01:04:13;4.82;;;4.53;;
487;SDS011;16586;48.976;9.584;2023-02-15T01:06:40;5.60;;;5.30;;
487;SDS011;16586;48.976;9.584;2023-02-15T01:09:07;6.25;;;5.88;;
487;SDS011;16586;48.976;9.584;2023-02-15T01:11:35;5.63;;;5.33;;
487;SDS011;16586;48.976;9.584;2023-02-15T01:14:02;5.93;;;5.63;;
487;SDS011;16586;48.976;9.584;2023-02-15T01:16:30;5.60;;;5.30;;
487;SDS011;16586;48.976;9.584;2023-02-15T01:18:57;5.28;;;4.97;;
487;SDS011;16586;48.976;9.584;2023-02-15T01:21:24;5.80;;;5.50;;
487;SDS011;16586;48.976;9.584;2023-02-15T01:23:51;5.38;;;5.07;;
487;SDS011;16586;48.976;9.584;2023-02-15T01:26:19;5.05;;;4.75;;
487;SDS011;16586;48.976;9.584;2023-02-15T01:28:47;4.75;;;4.45;;
487;SDS011;16586;48.976;9.584;2023-02-15T01:31:14;5.10;;;4.80;;
487;SDS011;16586;48.976;9.584;2023-02-15T01:33:43;4.80;;;4.50;;
487;SDS011;16586;48.976;9.584;2023-02-15T01:36:12;5.30;;;5.00;;
487;SDS011;16586;48.976;9.584;2023-02-15T01:38:45;5.05;;;4.75;;
487;SDS011;16586;48.976;9.584;2023-02-15T01:41:12;5.63;;;5.33;;
487;SDS011;16586;48.976;9.584;2023-02-15T01:43:54;5.00;;;4.70;;
487;SDS011;16586;48.976;9.584;2023-02-15T01:46:24;5.10;;;4.80;;
487;SDS011;16586;48.976;9.584;2023-02-15T01:48:58;5.25;;;4.95;;
487;SDS011;16586;48.976;9.584;2023-02-15T01:51:29;5.00;;;4.70;;
487;SDS011;16586;48.976;9.584;2023-02-15T01:54:01;5.25;;;4.95;;
487;SDS011;16586;48.976;9.584;2023-02-15T01:56:31;5.30;;;5.00;;
487;SDS011;16586;48.976;9.584;2023-02-15T01:59:02;5.43;;;5.13;;
487;SDS011;16586;48.976;9.584;2023-02-15T02:01:32;5.03;;;4.73;;
487;SDS011;16586;48.976;9.584;2023-02-15T02:04:01;5.00;;;4.70;;
487;SDS011;16586;48.976;9.584;2023-02-15T02:06:33;5.20;;;4.90;;
487;SDS011;16586;48.976;9.584;2023-02-15T02:09:03;5.70;;;5.40;;
487;SDS011;16586;48.976;9.584;2023-02-15T02:11:30;5.65;;;5.35;;
487;SDS011;16586;48.976;9.584;2023-02-15T02:13:58;5.43;;;5.13;;
487;SDS011;16586;48.976;9.584;2023-02-15T02:16:27;5.57;;;5.28;;
487;SDS011;16586;48.976;9.584;2023-02-15T02:19:04;5.70;;;5.40;;
487;SDS011;16586;48.976;9.584;2023-02-15T02:21:56;5.40;;;5.10;;
487;SDS011;16586;48.976;9.584;2023-02-15T02:27:49;5.97;;;5.68;;
487;SDS011;16586;48.976;9.584;2023-02-15T02:36:07;6.00;;;5.70;;
487;SDS011;16586;48.976;9.584;2023-02-15T02:38:48;5.78;;;5.47;;
487;SDS011;16586;48.976;9.584;2023-02-15T02:41:27;5.30;;;5.00;;
487;SDS011;16586;48.976;9.584;2023-02-15T02:44:01;5.25;;;4.95;;
487;SDS011;16586;48.976;9.584;2023-02-15T02:46:35;5.20;;;4.90;;
487;SDS011;16586;48.976;9.584;2023-02-15T02:49:07;5.35;;;5.05;;
487;SDS011;16586;48.976;9.584;2023-02-15T02:51:34;5.38;;;5.00;;
487;SDS011;16586;48.976;9.584;2023-02-15T02:54:01;5.05;;;4.75;;
487;SDS011;16586;48.976;9.584;2023-02-15T02:56:32;5.83;;;5.53;;
487;SDS011;16586;48.976;9.584;2023-02-15T02:59:04;5.50;;;5.20;;
487;SDS011;16586;48.976;9.584;2023-02-15T03:01:38;5.97;;;5.50;;
487;SDS011;16586;48.976;9.584;2023-02-15T03:04:11;5.60;;;5.30;;
487;SDS011;16586;48.976;9.584;2023-02-15T03:06:42;5.45;;;5.15;;
487;SDS011;16586;48.976;9.584;2023-02-15T03:09:14;5.10;;;4.80;;
487;SDS011;16586;48.976;9.584;2023-02-15T03:11:46;5.32;;;5.03;;
487;SDS011;16586;48.976;9.584;2023-02-15T03:14:14;5.45;;;5.15;;
487;SDS011;16586;48.976;9.584;2023-02-15T03:16:44;5.10;;;4.80;;
487;SDS011;16586;48.976;9.584;2023-02-15T03:19:16;4.80;;;4.50;;
487;SDS011;16586;48.976;9.584;2023-02-15T03:21:47;5.22;;;4.93;;
487;SDS011;16586;48.976;9.584;2023-02-15T03:24:24;5.20;;;4.90;;
487;SDS011;16586;48.976;9.584;2023-02-15T03:26:54;5.57;;;5.28;;
487;SDS011;16586;48.976;9.584;2023-02-15T03:29:23;5.25;;;4.95;;
487;SDS011;16586;48.976;9.584;2023-02-15T03:31:53;5.30;;;5.00;;
487;SDS011;16586;48.976;9.584;2023-02-15T03:34:25;5.60;;;5.30;;
487;SDS011;16586;48.976;9.584;2023-02-15T03:36:54;5.97;;;5.68;;
487;SDS011;16586;48.976;9.584;2023-02-15T03:39:25;4.90;;;4.60;;
487;SDS011;16586;48.976;9.584;2023-02-15T03:41:59;5.40;;;5.10;;
487;SDS011;16586;48.976;9.584;2023-02-15T03:44:36;5.45;;;5.22;;
487;SDS011;16586;48.976;9.584;2023-02-15T03:47:08;6.47;;;6.07;;
487;SDS011;16586;48.976;9.584;2023-02-15T03:49:42;5.45;;;5.25;;
487;SDS011;16586;48.976;9.584;2023-02-15T03:52:14;6.20;;;5.90;;
487;SDS011;16586;48.976;9.584;2023-02-15T03:54:42;6.30;;;5.95;;
487;SDS011;16586;48.976;9.584;2023-02-15T03:57:12;5.90;;;5.60;;
487;SDS011;16586;48.976;9.584;2023-02-15T04:00:00;6.00;;;5.70;;
487;SDS011;16586;48.976;9.584;2023-02-15T04:02:49;6.20;;;5.90;;
487;SDS011;16586;48.976;9.584;2023-02-15T04:05:27;5.70;;;5.40;;
487;SDS011;16586;48.976;9.584;2023-02-15T04:07:54;6.05;;;5.53;;
487;SDS011;16586;48.976;9.584;2023-02-15T04:10:20;6.10;;;5.80;;
487;SDS011;16586;48.976;9.584;2023-02-15T04:13:04;6.00;;;5.70;;
487;SDS011;16586;48.976;9.584;2023-02-15T04:15:31;6.93;;;6.53;;
487;SDS011;16586;48.976;9.584;2023-02-15T04:18:16;5.97;;;5.68;;
487;SDS011;16586;48.976;9.584;2023-02-15T04:20:44;5.95;;;5.68;;
487;SDS011;16586;48.976;9.584;2023-02-15T04:23:29;6.30;;;5.95;;
487;SDS011;16586;48.976;9.584;2023-02-15T04:26:13;6.57;;;6.18;;
487;SDS011;16586;48.976;9.584;2023-02-15T04:28:40;5.55;;;5.28;;
487;SDS011;16586;48.976;9.584;2023-02-15T04:31:07;6.82;;;6.43;;
487;SDS011;16586;48.976;9.584;2023-02-15T04:33:34;5.43;;;5.13;;
487;SDS011;16586;48.976;9.584;2023-02-15T04:36:03;5.90;;;5.60;;
487;SDS011;16586;48.976;9.584;2023-02-15T04:38:31;5.30;;;5.00;;
487;SDS011;16586;48.976;9.584;2023-02-15T04:40:58;5.75;;;5.45;;
487;SDS011;16586;48.976;9.584;2023-02-15T04:43:25;5.80;;;5.50;;
487;SDS011;16586;48.976;9.584;2023-02-15T04:45:51;5.60;;;5.30;;
487;SDS011;16586;48.976;9.584;2023-02-15T04:48:18;6.20;;;5.90;;
487;SDS011;16586;48.976;9.584;2023-02-15T04:50:45;6.40;;;6.00;;
487;SDS011;16586;48.976;9.584;2023-02-15T04:53:13;5.97;;;5.68;;
487;SDS011;16586;48.976;9.584;2023-02-15T04:55:42;6.05;;;5.75;;
487;SDS011;16586;48.976;9.584;2023-02-15T04:58:09;6.53;;;6.13;;
487;SDS011;16586;48.976;9.584;2023-02-15T05:00:35;6.00;;;5.68;;
487;SDS011;16586;48.976;9.584;2023-02-15T05:03:02;5.97;;;5.68;;
487;SDS011;16586;48.976;9.584;2023-02-15T05:05:29;6.10;;;5.80;;
487;SDS011;16586;48.976;9.584;2023-02-15T05:07:56;5.75;;;5.47;;
487;SDS011;16586;48.976;9.584;2023-02-15T05:10:24;6.20;;;5.90;;
487;SDS011;16586;48.976;9.584;2023-02-15T05:12:50;6.10;;;5.80;;
487;SDS011;16586;48.976;9.584;2023-02-15T05:15:17;5.30;;;5.07;;
487;SDS011;16586;48.976;9.584;2023-02-15T05:17:44;5.55;;;5.30;;
487;SDS011;16586;48.976;9.584;2023-02-15T05:20:11;5.93;;;5.63;;
487;SDS011;16586;48.976;9.584;2023-02-15T05:22:37;6.25;;;5.93;;
487;SDS011;16586;48.976;9.584;2023-02-15T05:25:05;6.00;;;5.70;;
487;SDS011;16586;48.976;9.584;2023-02-15T05:27:51;5.85;;;5.55;;
487;SDS011;16586;48.976;9.584;2023-02-15T05:30:35;6.25;;;5.93;;
487;SDS011;16586;48.976;9.584;2023-02-15T05:33:04;5.70;;;5.40;;
487;SDS011;16586;48.976;9.584;2023-02-15T05:35:31;6.13;;;5.82;;
487;SDS011;16586;48.976;9.584;2023-02-15T05:37:58;6.10;;;5.80;;
487;SDS011;16586;48.976;9.584;2023-02-15T05:40:25;5.80;;;5.50;;
487;SDS011;16586;48.976;9.584;2023-02-15T05:42:53;5.60;;;5.30;;
487;SDS011;16586;48.976;9.584;2023-02-15T05:45:20;6.17;;;5.87;;
487;SDS011;16586;48.976;9.584;2023-02-15T05:47:47;5.70;;;5.40;;
487;SDS011;16586;48.976;9.584;2023-02-15T05:50:13;6.10;;;5.80;;
487;SDS011;16586;48.976;9.584;2023-02-15T05:52:40;5.13;;;4.82;;
487;SDS011;16586;48.976;9.584;2023-02-15T05:55:07;6.05;;;5.75;;
487;SDS011;16586;48.976;9.584;2023-02-15T05:57:34;5.90;;;5.60;;
487;SDS011;16586;48.976;9.584;2023-02-15T06:00:03;5.15;;;4.85;;
487;SDS011;16586;48.976;9.584;2023-02-15T06:02:33;5.97;;;5.68;;
487;SDS011;16586;48.976;9.584;2023-02-15T06:05:00;5.55;;;5.25;;
487;SDS011;16586;48.976;9.584;2023-02-15T06:07:26;5.72;;;4.75;;
487;SDS011;16586;48.976;9.584;2023-02-15T06:09:53;5.20;;;4.90;;
487;SDS011;16586;48.976;9.584;2023-02-15T06:12:20;5.70;;;5.40;;
487;SDS011;16586;48.976;9.584;2023-02-15T06:14:47;6.15;;;5.85;;
487;SDS011;16586;48.976;9.584;2023-02-15T06:17:15;5.60;;;5.35;;
487;SDS011;16586;48.976;9.584;2023-02-15T06:19:43;5.10;;;4.80;;
487;SDS011;16586;48.976;9.584;2023-02-15T06:22:10;5.93;;;5.63;;
487;SDS011;16586;48.976;9.584;2023-02-15T06:24:38;6.13;;;5.60;;
487;SDS011;16586;48.976;9.584;2023-02-15T06:27:07;5.60;;;5.40;;
487;SDS011;16586;48.976;9.584;2023-02-15T06:29:34;5.73;;;5.40;;
487;SDS011;16586;48.976;9.584;2023-02-15T06:32:01;5.80;;;5.50;;
487;SDS011;16586;48.976;9.584;2023-02-15T06:34:29;6.10;;;5.80;;
487;SDS011;16586;48.976;9.584;2023-02-15T06:36:55;5.75;;;5.45;;
487;SDS011;16586;48.976;9.584;2023-02-15T06:39:22;5.82;;;5.45;;
487;SDS011;16586;48.976;9.584;2023-02-15T06:41:49;6.43;;;6.03;;
487;SDS011;16586;48.976;9.584;2023-02-15T06:44:16;7.10;;;6.70;;
487;SDS011;16586;48.976;9.584;2023-02-15T06:46:42;6.70;;;6.30;;
487;SDS011;16586;48.976;9.584;2023-02-15T06:49:09;7.00;;;6.60;;
487;SDS011;16586;48.976;9.584;2023-02-15T06:51:37;6.82;;;6.43;;
487;SDS011;16586;48.976;9.584;2023-02-15T06:54:04;6.80;;;6.40;;
487;SDS011;16586;48.976;9.584;2023-02-15T06:56:31;5.90;;;5.60;;
487;SDS011;16586;48.976;9.584;2023-02-15T06:58:58;7.03;;;6.63;;
487;SDS011;16586;48.976;9.584;2023-02-15T07:01:25;5.85;;;5.57;;
487;SDS011;16586;48.976;9.584;2023-02-15T07:03:54;6.65;;;6.35;;
487;SDS011;16586;48.976;9.584;2023-02-15T07:06:21;6.20;;;5.90;;
487;SDS011;16586;48.976;9.584;2023-02-15T07:08:52;5.53;;;5.22;;
487;SDS011;16586;48.976;9.584;2023-02-15T07:11:20;6.15;;;5.85;;
487;SDS011;16586;48.976;9.584;2023-02-15T07:14:05;6.40;;;6.00;;
487;SDS011;16586;48.976;9.584;2023-02-15T07:16:31;5.97;;;5.68;;
487;SDS011;16586;48.976;9.584;2023-02-15T07:18:58;6.95;;;6.35;;
487;SDS011;16586;48.976;9.584;2023-02-15T07:21:25;6.25;;;5.93;;
487;SDS011;16586;48.976;9.584;2023-02-15T07:23:55;6.50;;;6.10;;
487;SDS011;16586;48.976;9.584;2023-02-15T07:26:22;6.05;;;5.75;;
487;SDS011;16586;48.976;9.584;2023-02-15T07:28:49;7.35;;;6.95;;
487;SDS011;16586;48.976;9.584;2023-02-15T07:31:16;7.68;;;7.28;;
487;SDS011;16586;48.976;9.584;2023-02-15T07:33:43;6.68;;;6.28;;
487;SDS011;16586;48.976;9.584;2023-02-15T07:36:09;5.70;;;5.40;;
487;SDS011;16586;48.976;9.584;2023-02-15T07:38:37;6.07;;;5.78;;
487;SDS011;16586;48.976;9.584;2023-02-15T07:41:07;7.10;;;6.20;;
487;SDS011;16586;48.976;9.584;2023-02-15T07:43:35;5.95;;;5.65;;
487;SDS011;16586;48.976;9.584;2023-02-15T07:46:04;6.03;;;5.80;;
487;SDS011;16586;48.976;9.584;2023-02-15T07:48:34;6.07;;;5.80;;
487;SDS011;16586;48.976;9.584;2023-02-15T07:51:01;5.50;;;5.20;;
487;SDS011;16586;48.976;9.584;2023-02-15T07:53:28;5.40;;;5.20;;
487;SDS011;16586;48.976;9.584;2023-02-15T07:55:58;5.90;;;5.60;;
487;SDS011;16586;48.976;9.584;2023-02-15T07:58:26;5.88;;;5.60;;
487;SDS011;16586;48.976;9.584;2023-02-15T08:01:07;5.15;;;4.85;;
487;SDS011;16586;48.976;9.584;2023-02-15T08:03:34;5.30;;;5.00;;
487;SDS011;16586;48.976;9.584;2023-02-15T08:06:00;5.10;;;4.80;;
487;SDS011;16586;48.976;9.584;2023-02-15T08:08:27;5.70;;;5.40;;
487;SDS011;16586;48.976;9.584;2023-02-15T08:10:58;5.20;;;4.90;;
487;SDS011;16586;48.976;9.584;2023-02-15T08:13:44;5.28;;;4.97;;
487;SDS011;16586;48.976;9.584;2023-02-15T08:16:24;5.40;;;5.10;;
487;SDS011;16586;48.976;9.584;2023-02-15T08:18:52;5.50;;;5.20;;
487;SDS011;16586;48.976;9.584;2023-02-15T08:21:20;4.80;;;4.50;;
487;SDS011;16586;48.976;9.584;2023-02-15T08:23:47;5.55;;;5.25;;
487;SDS011;16586;48.976;9.584;2023-02-15T08:26:14;4.87;;;4.57;;
487;SDS011;16586;48.976;9.584;2023-02-15T08:28:41;4.80;;;4.50;;
487;SDS011;16586;48.976;9.584;2023-02-15T08:31:10;5.75;;;5.45;;
487;SDS011;16586;48.976;9.584;2023-02-15T08:33:38;5.65;;;5.35;;
487;SDS011;16586;48.976;9.584;2023-02-15T08:36:08;5.30;;;5.00;;
487;SDS011;16586;48.976;9.584;2023-02-15T08:38:37;5.43;;;5.13;;
487;SDS011;16586;48.976;9.584;2023-02-15T08:41:11;5.40;;;5.10;;
487;SDS011;16586;48.976;9.584;2023-02-15T08:43:39;5.10;;;4.80;;
487;SDS011;16586;48.976;9.584;2023-02-15T08:46:07;5.38;;;5.07;;
487;SDS011;16586;48.976;9.584;2023-02-15T08:48:35;6.10;;;5.80;;
487;SDS011;16586;48.976;9.584;2023-02-15T08:51:06;6.18;;;5.88;;
487;SDS011;16586;48.976;9.584;2023-02-15T08:53:35;5.80;;;5.50;;
487;SDS011;16586;48.976;9.584;2023-02-15T08:56:03;5.80;;;5.50;;
487;SDS011;16586;48.976;9.584;2023-02-15T08:58:30;5.97;;;5.68;;
487;SDS011;16586;48.976;9.584;2023-02-15T09:00:57;6.10;;;5.80;;
487;SDS011;16586;48.976;9.584;2023-02-15T09:03:24;5.70;;;5.40;;
487;SDS011;16586;48.976;9.584;2023-02-15T09:05:57;5.32;;;5.03;;
487;SDS011;16586;48.976;9.584;2023-02-15T09:08:25;5.60;;;5.30;;
487;SDS011;16586;48.976;9.584;2023-02-15T09:11:07;5.75;;;5.45;;
487;SDS011;16586;48.976;9.584;2023-02-15T09:13:35;6.18;;;5.88;;
487;SDS011;16586;48.976;9.584;2023-02-15T09:16:03;5.70;;;5.40;;
487;SDS011;16586;48.976;9.584;2023-02-15T09:18:32;6.00;;;5.70;;
487;SDS011;16586;48.976;9.584;2023-02-15T09:21:04;5.70;;;5.40;;
487;SDS011;16586;48.976;9.584;2023-02-15T09:23:33;6.10;;;5.80;;
487;SDS011;16586;48.976;9.584;2023-02-15T09:26:04;5.70;;;5.40;;
487;SDS011;16586;48.976;9.584;2023-02-15T09:28:32;5.70;;;5.40;;
487;SDS011;16586;48.976;9.584;2023-02-15T09:31:06;6.05;;;5.75;;
487;SDS011;16586;48.976;9.584;2023-02-15T09:33:35;6.00;;;5.70;;
487;SDS011;16586;48.976;9.584;2023-02-15T09:36:05;6.70;;;6.30;;
487;SDS011;16586;48.976;9.584;2023-02-15T09:38:40;6.10;;;5.80;;
487;SDS011;16586;48.976;9.584;2023-02-15T09:41:11;6.35;;;5.97;;
487;SDS011;16586;48.976;9.584;2023-02-15T09:43:46;5.57;;;5.28;;
487;SDS011;16586;48.976;9.584;2023-02-15T09:46:26;5.80;;;5.50;;
487;SDS011;16586;48.976;9.584;2023-02-15T09:49:02;6.18;;;5.88;;
487;SDS011;16586;48.976;9.584;2023-02-15T09:51:45;5.68;;;5.38;;
487;SDS011;16586;48.976;9.584;2023-02-15T09:57:14;5.80;;;5.50;;
487;SDS011;16586;48.976;9.584;2023-02-15T09:59:49;6.40;;;6.03;;
487;SDS011;16586;48.976;9.584;2023-02-15T10:02:27;7.43;;;7.03;;
487;SDS011;16586;48.976;9.584;2023-02-15T10:05:08;6.80;;;6.40;;
487;SDS011;16586;48.976;9.584;2023-02-15T10:07:52;7.13;;;6.72;;
487;SDS011;16586;48.976;9.584;2023-02-15T10:10:38;7.10;;;6.70;;
487;SDS011;16586;48.976;9.584;2023-02-15T10:13:18;6.77;;;6.37;;
487;SDS011;16586;48.976;9.584;2023-02-15T10:16:01;5.40;;;5.10;;
487;SDS011;16586;48.976;9.584;2023-02-15T10:18:45;5.43;;;5.13;;
487;SDS011;16586;48.976;9.584;2023-02-15T10:21:29;17.35;;;16.15;;
487;SDS011;16586;48.976;9.584;2023-02-15T10:24:14;12.77;;;12.05;;
487;SDS011;16586;48.976;9.584;2023-02-15T10:26:58;17.13;;;16.25;;
487;SDS011;16586;48.976;9.584;2023-02-15T10:29:34;9.90;;;9.40;;
487;SDS011;16586;48.976;9.584;2023-02-15T10:32:05;6.90;;;6.50;;
487;SDS011;16586;48.976;9.584;2023-02-15T10:34:43;4.60;;;4.30;;
487;SDS011;16586;48.976;9.584;2023-02-15T10:40:17;4.00;;;3.80;;
487;SDS011;16586;48.976;9.584;2023-02-15T10:42:54;3.63;;;3.42;;
487;SDS011;16586;48.976;9.584;2023-02-15T10:45:35;4.73;;;4.43;;
487;SDS011;16586;48.976;9.584;2023-02-15T10:48:16;6.80;;;6.40;;
487;SDS011;16586;48.976;9.584;2023-02-15T10:50:56;11.10;;;10.50;;
487;SDS011;16586;48.976;9.584;2023-02-15T10:53:38;255.40;;;243.20;;
487;SDS011;16586;48.976;9.584;2023-02-15T10:56:20;190.63;;;181.50;;
487;SDS011;16586;48.976;9.584;2023-02-15T10:59:00;280.10;;;266.75;;
487;SDS011;16586;48.976;9.584;2023-02-15T11:01:36;255.43;;;243.23;;
487;SDS011;16586;48.976;9.584;2023-02-15T11:04:09;267.73;;;254.93;;
487;SDS011;16586;48.976;9.584;2023-02-15T11:06:57;271.38;;;258.38;;
487;SDS011;16586;48.976;9.584;2023-02-15T11:09:29;207.93;;;197.95;;
487;SDS011;16586;48.976;9.584;2023-02-15T11:12:07;243.07;;;231.47;;
487;SDS011;16586;48.976;9.584;2023-02-15T11:14:39;373.50;;;355.70;;
487;SDS011;16586;48.976;9.584;2023-02-15T11:17:12;319.50;;;304.23;;
487;SDS011;16586;48.976;9.584;2023-02-15T11:19:45;325.07;;;309.53;;
487;SDS011;16586;48.976;9.584;2023-02-15T11:22:21;354.40;;;337.50;;
487;SDS011;16586;48.976;9.584;2023-02-15T11:24:48;337.73;;;321.60;;
487;SDS011;16586;48.976;9.584;2023-02-15T11:27:18;354.35;;;337.42;;
487;SDS011;16586;48.976;9.584;2023-02-15T11:29:52;391.05;;;372.40;;
487;SDS011;16586;48.976;9.584;2023-02-15T11:32:26;592.42;;;564.17;;
487;SDS011;16586;48.976;9.584;2023-02-15T11:34:58;578.87;;;551.27;;
487;SDS011;16586;48.976;9.584;2023-02-15T11:37:30;486.30;;;463.10;;
487;SDS011;16586;48.976;9.584;2023-02-15T11:40:02;806.83;;;768.38;;
487;SDS011;16586;48.976;9.584;2023-02-15T11:42:41;622.92;;;593.20;;
487;SDS011;16586;48.976;9.584;2023-02-15T11:45:15;532.17;;;506.77;;
487;SDS011;16586;48.976;9.584;2023-02-15T11:47:47;556.00;;;529.47;;
487;SDS011;16586;48.976;9.584;2023-02-15T11:50:15;576.60;;;549.10;;
487;SDS011;16586;48.976;9.584;2023-02-15T11:52:47;555.95;;;529.45;;
487;SDS011;16586;48.976;9.584;2023-02-15T11:55:14;352.10;;;335.27;;
487;SDS011;16586;48.976;9.584;2023-02-15T11:57:50;291.63;;;277.73;;
487;SDS011;16586;48.976;9.584;2023-02-15T12:00:23;250.10;;;238.13;;
487;SDS011;16586;48.976;9.584;2023-02-15T12:03:01;224.82;;;214.07;;
487;SDS011;16586;48.976;9.584;2023-02-15T12:05:35;163.37;;;155.57;;
487;SDS011;16586;48.976;9.584;2023-02-15T12:08:12;538.15;;;512.47;;
487;SDS011;16586;48.976;9.584;2023-02-15T12:13:38;1260.47;;;999.90;;
487;SDS011;16586;48.976;9.584;2023-02-15T12:16:21;1207.45;;;999.90;;
487;SDS011;16586;48.976;9.584;2023-02-15T12:18:48;1079.30;;;999.90;;
487;SDS011;16586;48.976;9.584;2023-02-15T12:21:25;1053.88;;;999.90;;
487;SDS011;16586;48.976;9.584;2023-02-15T12:23:55;981.38;;;934.60;;
487;SDS011;16586;48.976;9.584;2023-02-15T12:26:25;844.20;;;803.95;;
487;SDS011;16586;48.976;9.584;2023-02-15T12:28:54;795.42;;;757.50;;
487;SDS011;16586;48.976;9.584;2023-02-15T12:31:26;703.60;;;670.05;;
487;SDS011;16586;48.976;9.584;2023-02-15T12:33:57;635.20;;;604.90;;
487;SDS011;16586;48.976;9.584;2023-02-15T12:36:29;538.17;;;512.50;;
487;SDS011;16586;48.976;9.584;2023-02-15T12:39:05;431.95;;;411.35;;
487;SDS011;16586;48.976;9.584;2023-02-15T12:41:56;376.05;;;358.10;;
487;SDS011;16586;48.976;9.584;2023-02-15T12:44:30;361.80;;;344.52;;
487;SDS011;16586;48.976;9.584;2023-02-15T12:46:59;353.20;;;336.30;;
487;SDS011;16586;48.976;9.584;2023-02-15T12:49:28;349.63;;;326.20;;
487;SDS011;16586;48.976;9.584;2023-02-15T12:51:56;366.15;;;348.65;;
487;SDS011;16586;48.976;9.584;2023-02-15T12:54:29;366.63;;;349.13;;
487;SDS011;16586;48.976;9.584;2023-02-15T12:59:57;374.23;;;356.35;;
487;SDS011;16586;48.976;9.584;2023-02-15T13:02:30;347.90;;;320.77;;
487;SDS011;16586;48.976;9.584;2023-02-15T13:05:04;346.85;;;324.02;;
487;SDS011;16586;48.976;9.584;2023-02-15T13:07:44;351.00;;;334.25;;
487;SDS011;16586;48.976;9.584;2023-02-15T13:10:18;345.23;;;316.63;;
487;SDS011;16586;48.976;9.584;2023-02-15T13:12:49;355.15;;;338.20;;
487;SDS011;16586;48.976;9.584;2023-02-15T13:15:27;346.40;;;310.17;;
487;SDS011;16586;48.976;9.584;2023-02-15T13:17:57;342.05;;;289.83;;
487;SDS011;16586;48.976;9.584;2023-02-15T13:20:25;1050.22;;;998.75;;
487;SDS011;16586;48.976;9.584;2023-02-15T13:22:54;1048.90;;;998.90;;
487;SDS011;16586;48.976;9.584;2023-02-15T13:25:28;1037.22;;;987.83;;
487;SDS011;16586;48.976;9.584;2023-02-15T13:28:00;1033.07;;;983.83;;
487;SDS011;16586;48.976;9.584;2023-02-15T13:30:30;1027.30;;;978.30;;
487;SDS011;16586;48.976;9.584;2023-02-15T13:33:02;1019.88;;;971.28;;
487;SDS011;16586;48.976;9.584;2023-02-15T13:35:34;1017.97;;;969.47;;
487;SDS011;16586;48.976;9.584;2023-02-15T13:38:15;1007.58;;;959.58;;
487;SDS011;16586;48.976;9.584;2023-02-15T13:40:53;1019.00;;;970.40;;
487;SDS011;16586;48.976;9.584;2023-02-15T13:43:25;1030.72;;;981.60;;
487;SDS011;16586;48.976;9.584;2023-02-15T13:46:12;1038.67;;;989.13;;
487;SDS011;16586;48.976;9.584;2023-02-15T13:48:52;1037.00;;;987.60;;
487;SDS011;16586;48.976;9.584;2023-02-15T13:51:35;1053.43;;;999.90;;
487;SDS011;16586;48.976;9.584;2023-02-15T13:57:02;1070.25;;;999.90;;
487;SDS011;16586;48.976;9.584;2023-02-15T13:59:47;1074.80;;;999.90;;
487;SDS011;16586;48.976;9.584;2023-02-15T14:02:38;1078.82;;;999.90;;
487;SDS011;16586;48.976;9.584;2023-02-15T14:05:28;1081.15;;;999.90;;
487;SDS011;16586;48.976;9.584;2023-02-15T14:08:05;1077.40;;;999.90;;
487;SDS011;16586;48.976;9.584;2023-02-15T14:10:46;1093.72;;;999.90;;
487;SDS011;16586;48.976;9.584;2023-02-15T14:16:31;1091.57;;;999.90;;
487;SDS011;16586;48.976;9.584;2023-02-15T14:19:11;1088.63;;;999.90;;
487;SDS011;16586;48.976;9.584;2023-02-15T14:21:43;1099.70;;;999.90;;
487;SDS011;16586;48.976;9.584;2023-02-15T14:24:17;1065.78;;;999.90;;
487;SDS011;16586;48.976;9.584;2023-02-15T14:26:56;1060.88;;;999.90;;
487;SDS011;16586;48.976;9.584;2023-02-15T14:29:35;1077.05;;;999.90;;
487;SDS011;16586;48.976;9.584;2023-02-15T14:32:18;1069.90;;;999.90;;
487;SDS011;16586;48.976;9.584;2023-02-15T14:34:53;1087.97;;;999.90;;
487;SDS011;16586;48.976;9.584;2023-02-15T14:37:25;1063.50;;;999.90;;
487;SDS011;16586;48.976;9.584;2023-02-15T14:39:59;1073.15;;;999.90;;
487;SDS011;16586;48.976;9.584;2023-02-15T14:42:48;1035.78;;;986.38;;
487;SDS011;16586;48.976;9.584;2023-02-15T14:45:21;1038.13;;;988.63;;
487;SDS011;16586;48.976;9.584;2023-02-15T14:47:56;1038.50;;;989.00;;
487;SDS011;16586;48.976;9.584;2023-02-15T14:50:44;1047.47;;;997.53;;
487;SDS011;16586;48.976;9.584;2023-02-15T14:53:15;1059.22;;;999.90;;
487;SDS011;16586;48.976;9.584;2023-02-15T14:56:17;1051.10;;;999.90;;
487;SDS011;16586;48.976;9.584;2023-02-15T14:58:56;1070.85;;;999.90;;
487;SDS011;16586;48.976;9.584;2023-02-15T15:01:26;1078.90;;;999.90;;
487;SDS011;16586;48.976;9.584;2023-02-15T15:03:55;1108.37;;;999.90;;
487;SDS011;16586;48.976;9.584;2023-02-15T15:06:27;1116.93;;;999.90;;
487;SDS011;16586;48.976;9.584;2023-02-15T15:08:55;1141.27;;;999.90;;
487;SDS011;16586;48.976;9.584;2023-02-15T15:17:12;1184.95;;;999.90;;
487;SDS011;16586;48.976;9.584;2023-02-15T15:20:00;1165.75;;;999.90;;
487;SDS011;16586;48.976;9.584;2023-02-15T15:22:29;1159.45;;;999.90;;
487;SDS011;16586;48.976;9.584;2023-02-15T15:24:57;1140.60;;;999.90;;
487;SDS011;16586;48.976;9.584;2023-02-15T15:36:48;542.88;;;516.97;;
487;SDS011;16586;48.976;9.584;2023-02-15T15:42:48;446.20;;;424.90;;
487;SDS011;16586;48.976;9.584;2023-02-15T15:48:22;379.15;;;361.05;;
487;SDS011;16586;48.976;9.584;2023-02-15T15:50:59;355.25;;;334.55;;
487;SDS011;16586;48.976;9.584;2023-02-15T15:53:31;357.10;;;339.17;;
487;SDS011;16586;48.976;9.584;2023-02-15T15:56:05;809.95;;;771.33;;
487;SDS011;16586;48.976;9.584;2023-02-15T15:58:35;1068.63;;;999.90;;
487;SDS011;16586;48.976;9.584;2023-02-15T16:01:09;1049.43;;;999.42;;
487;SDS011;16586;48.976;9.584;2023-02-15T16:03:38;1037.95;;;988.45;;
487;SDS011;16586;48.976;9.584;2023-02-15T16:06:13;1021.00;;;972.30;;
487;SDS011;16586;48.976;9.584;2023-02-15T16:08:51;1012.83;;;964.53;;
487;SDS011;16586;48.976;9.584;2023-02-15T16:11:22;1002.28;;;954.47;;